Time;durP1;ratioP1;P1;durP2;ratioP2;P2;SDS_P1;SDS_P2;PMS_P1;PMS_P2;Temp;Humidity;BMP_temperature;BMP_pressure;BME280_temperature;BME280_humidity;BME280_pressure;Samples;Min_cycle;Max_cycle;Signal;HPM_P1;HPM_P2
2023/03/10 00:01:30;;;;;;;15.70;7.20;;;;;;;7.21;89.59;96917.73;104866;1260;100544;-70
2023/03/10 00:03:59;;;;;;;15.20;6.80;;;;;;;7.24;89.19;96923.13;104619;1263;100821;-70
2023/03/10 00:06:32;;;;;;;15.50;6.40;;;;;;;7.23;89.59;96921.56;104906;1257;108705;-72
2023/03/10 00:09:03;;;;;;;18.70;7.70;;;;;;;7.27;89.55;96915.63;104931;1271;99221;-70
2023/03/10 00:11:36;;;;;;;14.40;6.60;;;;;;;7.31;89.34;96912.42;104933;1261;100694;-70
2023/03/10 00:14:12;;;;;;;19.10;8.00;;;;;;;7.33;88.82;96913.49;104916;1263;113619;-71
2023/03/10 00:16:43;;;;;;;20.20;7.10;;;;;;;7.32;88.56;96910.42;104911;1267;99413;-69
2023/03/10 00:19:11;;;;;;;13.90;5.10;;;;;;;7.30;88.59;96904.58;104881;1261;108810;-69
2023/03/10 00:21:40;;;;;;;11.20;4.70;;;;;;;7.29;88.61;96898.63;104889;1263;99246;-69
2023/03/10 00:24:08;;;;;;;13.80;5.00;;;;;;;7.26;88.17;96895.29;104989;1257;99259;-69
2023/03/10 00:26:37;;;;;;;13.50;5.90;;;;;;;7.23;88.40;96891.95;104937;1263;113780;-70
2023/03/10 00:29:04;;;;;;;9.60;3.90;;;;;;;7.20;88.24;96889.67;104984;1263;100438;-69
2023/03/10 00:31:31;;;;;;;9.00;3.90;;;;;;;7.21;88.04;96889.50;105002;1257;100588;-69
2023/03/10 00:33:58;;;;;;;7.40;3.20;;;;;;;7.25;87.49;96890.17;104901;1260;99282;-69
2023/03/10 00:36:27;;;;;;;10.80;4.30;;;;;;;7.30;87.22;96884.13;104792;1263;99352;-69
2023/03/10 00:38:56;;;;;;;6.70;2.70;;;;;;;7.36;86.95;96882.15;104821;1262;113554;-69
2023/03/10 00:41:25;;;;;;;9.10;3.50;;;;;;;7.42;86.55;96885.30;104906;1260;100582;-69
2023/03/10 00:43:52;;;;;;;7.10;3.20;;;;;;;7.45;86.63;96894.44;104815;1261;107332;-70
2023/03/10 00:46:19;;;;;;;12.20;4.30;;;;;;;7.45;86.64;96898.42;104881;1262;99243;-70
2023/03/10 00:48:46;;;;;;;12.90;4.50;;;;;;;7.45;86.61;96897.41;104923;1270;99249;-72
2023/03/10 00:51:13;;;;;;;7.60;3.10;;;;;;;7.48;86.38;96896.39;104990;1272;99222;-68
2023/03/10 00:53:41;;;;;;;7.80;2.90;;;;;;;7.53;86.16;96889.34;104946;1261;99339;-70
2023/03/10 00:56:14;;;;;;;11.90;4.70;;;;;;;7.56;85.75;96890.38;104991;1262;99290;-69
2023/03/10 00:58:42;;;;;;;11.10;4.50;;;;;;;7.55;85.99;96887.59;104762;1272;100610;-70
2023/03/10 01:01:14;;;;;;;14.80;5.80;;;;;;;7.55;85.52;96886.90;104986;1260;99630;-70
2023/03/10 01:03:42;;;;;;;6.70;2.80;;;;;;;7.54;85.33;96878.23;104720;1262;112609;-70
2023/03/10 01:06:09;;;;;;;14.80;6.30;;;;;;;7.52;85.15;96875.50;104617;1263;210889;-69
2023/03/10 01:08:36;;;;;;;10.00;3.70;;;;;;;7.51;85.59;96876.41;104974;1278;100437;-68
2023/03/10 01:11:03;;;;;;;9.70;4.60;;;;;;;7.51;85.08;96869.55;104895;1270;99352;-69
2023/03/10 01:13:30;;;;;;;6.00;3.00;;;;;;;7.51;84.73;96873.33;104960;1270;99846;-69
2023/03/10 01:15:57;;;;;;;5.50;2.60;;;;;;;7.53;84.65;96868.02;105011;1270;99261;-69
2023/03/10 01:18:24;;;;;;;6.90;3.10;;;;;;;7.52;84.93;96863.16;104950;1270;99673;-69
2023/03/10 01:20:51;;;;;;;10.60;5.00;;;;;;;7.50;84.57;96862.44;104940;1274;99271;-69
2023/03/10 01:23:21;;;;;;;8.30;3.80;;;;;;;7.46;84.95;96861.38;104955;1261;99202;-69
2023/03/10 01:25:49;;;;;;;9.80;4.20;;;;;;;7.43;84.69;96863.39;104929;1260;113535;-69
2023/03/10 01:28:17;;;;;;;7.50;3.30;;;;;;;7.43;84.74;96863.02;105001;1270;99381;-69
2023/03/10 01:30:44;;;;;;;11.60;5.20;;;;;;;7.43;84.53;96861.14;104602;1261;108099;-69
2023/03/10 01:33:12;;;;;;;7.40;4.00;;;;;;;7.42;84.36;96853.69;104961;1267;100538;-69
2023/03/10 01:35:39;;;;;;;11.10;4.50;;;;;;;7.41;84.55;96848.92;104676;1265;99872;-68
2023/03/10 01:38:07;;;;;;;8.10;3.80;;;;;;;7.37;84.54;96847.70;104945;1262;99214;-69
2023/03/10 01:40:36;;;;;;;13.20;4.80;;;;;;;7.32;84.45;96851.55;104942;1262;99780;-68
2023/03/10 01:43:18;;;;;;;13.60;5.10;;;;;;;7.28;85.10;96848.55;104926;1273;108528;-69
2023/03/10 01:45:44;;;;;;;10.40;4.30;;;;;;;7.22;85.07;96846.93;104892;1261;99258;-68
2023/03/10 01:48:13;;;;;;;8.50;4.10;;;;;;;7.19;84.60;96843.98;104981;1263;100510;-67
2023/03/10 01:50:43;;;;;;;6.40;3.80;;;;;;;7.18;84.54;96839.32;104971;1272;113536;-68
2023/03/10 01:53:13;;;;;;;10.30;5.20;;;;;;;7.16;84.40;96834.59;104905;1257;99247;-68
2023/03/10 01:55:47;;;;;;;5.70;3.00;;;;;;;7.13;84.39;96834.36;104626;1276;108619;-67
2023/03/10 01:58:16;;;;;;;6.10;2.20;;;;;;;7.13;84.58;96834.42;104901;1263;100549;-68
2023/03/10 02:00:43;;;;;;;3.70;1.90;;;;;;;7.11;84.37;96832.27;104905;1263;99766;-67
2023/03/10 02:03:20;;;;;;;6.00;2.90;;;;;;;7.09;84.59;96824.72;104807;1267;99249;-68
2023/03/10 02:06:01;;;;;;;3.80;2.60;;;;;;;7.08;84.43;96826.78;104796;1263;99216;-72
2023/03/10 02:08:52;;;;;;;7.10;3.30;;;;;;;7.05;84.71;96825.02;104467;1268;107878;-68
2023/03/10 02:11:20;;;;;;;8.80;3.70;;;;;;;7.00;84.62;96822.30;104770;1262;99320;-68
2023/03/10 02:13:47;;;;;;;7.40;3.60;;;;;;;6.95;84.63;96812.94;105015;1263;100763;-68
2023/03/10 02:16:15;;;;;;;7.80;3.50;;;;;;;6.91;84.69;96815.23;104895;1263;99233;-68
2023/03/10 02:18:45;;;;;;;7.00;3.20;;;;;;;6.87;84.88;96808.58;105009;1257;99226;-67
2023/03/10 02:21:40;;;;;;;9.00;3.90;;;;;;;6.84;84.80;96803.95;104928;1261;108608;-68
2023/03/10 02:24:34;;;;;;;9.50;3.90;;;;;;;6.82;84.76;96797.66;104551;1266;99420;-67
2023/03/10 02:27:15;;;;;;;5.80;2.30;;;;;;;6.82;84.93;96797.23;104900;1262;99230;-68
2023/03/10 02:29:49;;;;;;;7.50;4.80;;;;;;;6.81;84.83;96797.86;104592;1270;113343;-66
2023/03/10 02:32:27;;;;;;;11.00;5.60;;;;;;;6.81;84.88;96800.25;104604;1277;100898;-66
2023/03/10 02:34:54;;;;;;;13.10;5.30;;;;;;;6.81;84.80;96798.78;104481;1262;107674;-67
2023/03/10 02:37:25;;;;;;;6.80;3.30;;;;;;;6.80;84.48;96799.50;104783;1263;99256;-67
2023/03/10 02:39:52;;;;;;;6.90;3.40;;;;;;;6.78;84.68;96797.56;104635;1265;101010;-66
2023/03/10 02:42:21;;;;;;;4.70;2.50;;;;;;;6.76;84.89;96786.78;104843;1262;99249;-67
2023/03/10 02:44:48;;;;;;;8.00;4.40;;;;;;;6.76;84.62;96784.52;104854;1257;99230;-67
2023/03/10 02:47:15;;;;;;;6.20;4.30;;;;;;;6.75;84.76;96779.66;104793;1262;100519;-67
2023/03/10 02:49:43;;;;;;;8.30;3.30;;;;;;;6.75;84.54;96784.88;104919;1257;99276;-67
2023/03/10 02:52:33;;;;;;;7.90;4.00;;;;;;;6.74;84.73;96779.86;104806;1278;99297;-67
2023/03/10 02:55:00;;;;;;;4.30;2.30;;;;;;;6.72;84.54;96776.61;104597;1279;113205;-67
2023/03/10 02:57:27;;;;;;;2.80;1.60;;;;;;;6.74;84.66;96777.06;104614;1279;99232;-67
2023/03/10 02:59:54;;;;;;;6.00;2.90;;;;;;;6.75;84.37;96777.66;104794;1273;99257;-67
2023/03/10 03:02:20;;;;;;;9.60;3.70;;;;;;;6.75;84.37;96774.14;104936;1279;99339;-67
2023/03/10 03:04:47;;;;;;;7.10;2.30;;;;;;;6.74;84.64;96768.83;104909;1263;99246;-67
2023/03/10 03:07:14;;;;;;;5.10;2.40;;;;;;;6.74;84.31;96761.21;104920;1262;99304;-67
2023/03/10 03:09:41;;;;;;;6.00;2.10;;;;;;;6.74;84.48;96759.02;104584;1264;108206;-66
2023/03/10 03:12:08;;;;;;;6.00;2.80;;;;;;;6.75;84.30;96748.16;104924;1263;99350;-67
2023/03/10 03:14:35;;;;;;;4.70;2.30;;;;;;;6.75;84.25;96738.44;104991;1267;99255;-67
2023/03/10 03:17:02;;;;;;;4.90;1.70;;;;;;;6.74;84.26;96737.41;104866;1262;99279;-67
2023/03/10 03:19:29;;;;;;;4.20;1.90;;;;;;;6.75;84.33;96734.56;104482;1267;99541;-67
2023/03/10 03:21:56;;;;;;;5.40;3.00;;;;;;;6.74;84.13;96728.83;104446;1266;99465;-67
2023/03/10 03:24:23;;;;;;;5.20;2.90;;;;;;;6.71;84.26;96724.39;104495;1262;100507;-67
2023/03/10 03:26:50;;;;;;;8.00;4.50;;;;;;;6.67;84.13;96717.16;104219;1268;112549;-67
2023/03/10 03:29:17;;;;;;;8.00;4.00;;;;;;;6.65;84.18;96714.85;104345;1268;99356;-68
2023/03/10 03:31:44;;;;;;;5.70;2.80;;;;;;;6.65;84.34;96715.40;104135;1270;99399;-70
2023/03/10 03:34:11;;;;;;;7.90;2.90;;;;;;;6.65;84.18;96708.41;104595;1278;99567;-67
2023/03/10 03:36:38;;;;;;;6.40;2.80;;;;;;;6.65;84.34;96705.04;104540;1278;99429;-67
2023/03/10 03:39:06;;;;;;;7.10;3.30;;;;;;;6.64;83.93;96705.11;104925;1270;99221;-67
2023/03/10 03:41:33;;;;;;;9.30;3.80;;;;;;;6.64;84.15;96700.70;104942;1261;99266;-68
2023/03/10 03:44:00;;;;;;;8.30;4.00;;;;;;;6.64;84.06;96697.78;104883;1260;99338;-68
2023/03/10 03:46:27;;;;;;;7.20;3.80;;;;;;;6.63;83.92;96697.98;104980;1257;99275;-67
2023/03/10 03:48:54;;;;;;;9.00;4.20;;;;;;;6.61;83.90;96695.66;104954;1263;113544;-67
2023/03/10 03:51:21;;;;;;;7.90;3.70;;;;;;;6.58;83.84;96692.59;104790;1271;100588;-68
2023/03/10 03:53:48;;;;;;;6.20;2.70;;;;;;;6.51;84.15;96688.48;104914;1257;99339;-68
2023/03/10 03:56:15;;;;;;;5.30;2.20;;;;;;;6.44;84.05;96680.77;104904;1264;99687;-67
2023/03/10 03:58:42;;;;;;;4.70;2.10;;;;;;;6.38;84.03;96674.44;104919;1271;99755;-67
2023/03/10 04:01:09;;;;;;;6.60;4.70;;;;;;;6.34;84.34;96668.23;104912;1271;99246;-67
2023/03/10 04:03:36;;;;;;;6.20;3.10;;;;;;;6.31;84.25;96666.95;104964;1263;99342;-67
2023/03/10 04:06:05;;;;;;;3.80;1.90;;;;;;;6.28;84.56;96665.31;104535;1266;100664;-67
2023/03/10 04:08:32;;;;;;;5.00;1.80;;;;;;;6.28;84.72;96665.94;104600;1274;101102;-68
2023/03/10 04:10:59;;;;;;;4.70;1.90;;;;;;;6.28;84.50;96667.33;104817;1272;99336;-67
2023/03/10 04:13:26;;;;;;;5.70;2.80;;;;;;;6.30;84.28;96663.45;104885;1280;99331;-69
2023/03/10 04:15:58;;;;;;;7.70;3.70;;;;;;;6.33;84.29;96658.78;104748;1261;99266;-66
2023/03/10 04:18:25;;;;;;;4.80;2.50;;;;;;;6.35;84.34;96656.45;104728;1261;99385;-67
2023/03/10 04:20:52;;;;;;;7.10;3.00;;;;;;;6.36;84.27;96654.77;104762;1257;99673;-67
2023/03/10 04:23:19;;;;;;;4.90;2.50;;;;;;;6.37;84.59;96655.58;104842;1280;100470;-67
2023/03/10 04:25:46;;;;;;;6.40;3.90;;;;;;;6.38;84.27;96652.59;104739;1263;100023;-67
2023/03/10 04:28:13;;;;;;;7.90;4.80;;;;;;;6.36;84.18;96651.60;104583;1262;99340;-66
2023/03/10 04:30:42;;;;;;;11.10;5.50;;;;;;;6.35;84.37;96644.16;104791;1263;99266;-66
2023/03/10 04:33:11;;;;;;;10.30;4.80;;;;;;;6.35;84.16;96641.61;104658;1257;99652;-66
2023/03/10 04:35:42;;;;;;;22.50;9.90;;;;;;;6.33;84.17;96636.00;104587;1263;112003;-66
2023/03/10 04:38:09;;;;;;;8.40;4.60;;;;;;;6.30;84.37;96634.90;104930;1261;100456;-67
2023/03/10 04:40:36;;;;;;;4.40;2.80;;;;;;;6.25;84.49;96631.01;104841;1263;100546;-66
2023/03/10 04:43:04;;;;;;;5.90;3.00;;;;;;;6.21;84.50;96626.50;104809;1263;99265;-67
2023/03/10 04:45:31;;;;;;;7.60;3.00;;;;;;;6.15;84.52;96620.64;104777;1262;99426;-66
2023/03/10 04:47:58;;;;;;;7.80;5.30;;;;;;;6.11;84.57;96620.27;104633;1263;100444;-66
2023/03/10 04:50:25;;;;;;;9.40;5.00;;;;;;;6.09;84.28;96614.12;104912;1263;99325;-69
2023/03/10 04:52:52;;;;;;;5.90;3.60;;;;;;;6.05;84.16;96614.08;104673;1280;99365;-73
2023/03/10 04:55:19;;;;;;;8.80;4.50;;;;;;;6.01;84.49;96613.54;104852;1263;99277;-68
2023/03/10 04:57:46;;;;;;;14.30;6.40;;;;;;;6.01;84.62;96609.32;104990;1257;99359;-67
2023/03/10 05:00:13;;;;;;;5.70;3.70;;;;;;;5.99;84.54;96608.34;104564;1265;99257;-67
2023/03/10 05:02:41;;;;;;;6.00;2.80;;;;;;;6.00;84.60;96605.88;104633;1278;107843;-67
2023/03/10 05:05:08;;;;;;;10.50;6.50;;;;;;;6.01;84.57;96605.75;104894;1262;99347;-67
2023/03/10 05:07:35;;;;;;;6.50;4.50;;;;;;;6.00;84.45;96601.07;104895;1257;99179;-67
2023/03/10 05:10:03;;;;;;;5.00;2.70;;;;;;;5.99;84.54;96592.55;104874;1263;99313;-67
2023/03/10 05:12:30;;;;;;;5.50;2.60;;;;;;;5.97;84.71;96586.19;104847;1263;99192;-67
2023/03/10 05:14:58;;;;;;;3.70;2.50;;;;;;;5.97;84.46;96586.11;104766;1262;99249;-68
2023/03/10 05:17:27;;;;;;;5.20;2.80;;;;;;;5.95;84.57;96580.14;104919;1262;99278;-67
2023/03/10 05:19:54;;;;;;;6.30;2.70;;;;;;;5.95;84.51;96575.47;104613;1257;99949;-66
2023/03/10 05:22:21;;;;;;;9.80;5.30;;;;;;;5.93;84.78;96580.76;104802;1270;99265;-67
2023/03/10 05:24:48;;;;;;;12.70;8.80;;;;;;;5.92;84.70;96582.49;104658;1263;99373;-66
2023/03/10 05:27:18;;;;;;;13.70;6.00;;;;;;;5.90;84.74;96578.71;104796;1270;99280;-67
2023/03/10 05:29:46;;;;;;;10.70;5.00;;;;;;;5.88;84.49;96576.84;104581;1266;99426;-67
2023/03/10 05:32:12;;;;;;;18.70;6.80;;;;;;;5.87;84.95;96571.22;104878;1257;99935;-68
2023/03/10 05:34:40;;;;;;;9.20;3.60;;;;;;;5.87;84.81;96567.66;104732;1279;100524;-68
2023/03/10 05:37:06;;;;;;;7.80;2.60;;;;;;;5.87;84.78;96559.83;104880;1263;99551;-68
2023/03/10 05:39:34;;;;;;;11.80;5.50;;;;;;;5.89;84.61;96567.75;104754;1271;99234;-67
2023/03/10 05:42:01;;;;;;;17.00;4.70;;;;;;;5.90;84.67;96555.65;104831;1271;99929;-67
2023/03/10 05:44:27;;;;;;;6.60;3.00;;;;;;;5.91;84.72;96555.21;104833;1263;99839;-67
2023/03/10 05:46:54;;;;;;;7.80;3.30;;;;;;;5.92;84.79;96553.45;104910;1273;99217;-67
2023/03/10 05:49:22;;;;;;;6.60;4.10;;;;;;;5.95;85.04;96542.16;104945;1257;99327;-67
2023/03/10 05:51:49;;;;;;;6.20;3.40;;;;;;;6.01;84.93;96534.83;104583;1273;99424;-67
2023/03/10 05:54:16;;;;;;;6.60;4.60;;;;;;;6.08;84.54;96543.33;104791;1271;99271;-67
2023/03/10 05:56:43;;;;;;;7.80;3.80;;;;;;;6.15;84.61;96540.58;104564;1262;99828;-66
2023/03/10 05:59:10;;;;;;;19.80;8.70;;;;;;;6.21;84.61;96539.70;104755;1265;99357;-67
2023/03/10 06:01:37;;;;;;;31.30;13.20;;;;;;;6.24;84.54;96542.69;104772;1271;99706;-67
2023/03/10 06:04:04;;;;;;;9.60;4.60;;;;;;;6.27;84.16;96532.77;104798;1271;100464;-68
2023/03/10 06:06:32;;;;;;;9.70;6.60;;;;;;;6.31;84.55;96527.38;104770;1270;99240;-68
2023/03/10 06:09:01;;;;;;;11.40;8.80;;;;;;;6.37;84.13;96523.13;104720;1271;99250;-66
2023/03/10 06:11:35;;;;;;;11.60;6.70;;;;;;;6.44;84.13;96522.34;104523;1257;100658;-71
2023/03/10 06:14:03;;;;;;;9.70;4.40;;;;;;;6.52;83.87;96516.77;104760;1263;107765;-72
2023/03/10 06:16:36;;;;;;;8.70;4.30;;;;;;;6.62;83.57;96508.05;104890;1257;99313;-68
2023/03/10 06:19:06;;;;;;;10.30;5.50;;;;;;;6.75;83.16;96506.34;104934;1272;99211;-68
2023/03/10 06:21:36;;;;;;;7.90;3.80;;;;;;;6.88;83.19;96501.55;104889;1267;111953;-67
2023/03/10 06:24:06;;;;;;;8.80;2.80;;;;;;;7.05;82.29;96497.75;104863;1263;99284;-67
2023/03/10 06:26:35;;;;;;;8.70;3.30;;;;;;;7.22;82.22;96489.45;104578;1265;107661;-67
2023/03/10 06:29:07;;;;;;;12.50;5.50;;;;;;;7.40;81.61;96487.69;104791;1261;99771;-68
2023/03/10 06:31:37;;;;;;;7.00;3.10;;;;;;;7.58;81.04;96486.45;104704;1257;99667;-68
2023/03/10 06:34:08;;;;;;;;;;;;;;;7.75;80.94;96486.44;104795;1262;112597;-68
2023/03/10 06:36:39;;;;;;;6.80;3.20;;;;;;;7.88;80.75;96489.51;105063;1263;99180;-68
2023/03/10 06:39:07;;;;;;;14.00;5.70;;;;;;;8.01;80.81;96490.07;104925;1263;108527;-68
2023/03/10 06:41:35;;;;;;;10.90;4.30;;;;;;;8.12;80.22;96483.33;104944;1270;99241;-68
2023/03/10 06:44:02;;;;;;;12.70;5.30;;;;;;;8.22;79.05;96483.57;104582;1266;101011;-69
2023/03/10 06:46:29;;;;;;;9.40;4.60;;;;;;;8.29;79.36;96478.98;104596;1266;113230;-69
2023/03/10 06:48:56;;;;;;;11.60;7.30;;;;;;;8.36;79.07;96477.67;104893;1262;99345;-69
2023/03/10 06:51:23;;;;;;;12.80;5.40;;;;;;;8.38;77.97;96467.51;104896;1274;99768;-68
2023/03/10 06:53:51;;;;;;;4.80;3.10;;;;;;;8.41;77.71;96465.08;104908;1261;99234;-69
2023/03/10 06:56:21;;;;;;;6.40;2.80;;;;;;;8.45;77.38;96462.92;104945;1262;99356;-67
2023/03/10 06:58:48;;;;;;;8.50;4.50;;;;;;;8.49;77.06;96459.42;104964;1263;113546;-67
2023/03/10 07:01:19;;;;;;;9.70;5.20;;;;;;;8.52;77.30;96456.14;104936;1263;99256;-67
2023/03/10 07:03:47;;;;;;;8.30;3.60;;;;;;;8.53;76.99;96454.60;104746;1263;108293;-68
2023/03/10 07:06:14;;;;;;;9.50;3.90;;;;;;;8.57;76.84;96455.96;104867;1267;99249;-67
2023/03/10 07:08:41;;;;;;;9.80;4.80;;;;;;;8.60;76.54;96452.36;104711;1270;100426;-68
2023/03/10 07:11:09;;;;;;;10.20;4.70;;;;;;;8.62;75.99;96448.50;104785;1270;99309;-67
2023/03/10 07:13:37;;;;;;;11.00;5.40;;;;;;;8.66;75.95;96447.97;104780;1267;99243;-67
2023/03/10 07:16:05;;;;;;;11.80;6.10;;;;;;;8.74;76.26;96449.41;104599;1267;105521;-67
2023/03/10 07:18:32;;;;;;;12.00;5.30;;;;;;;8.84;75.30;96448.91;104818;1273;99228;-67
2023/03/10 07:20:59;;;;;;;10.40;5.00;;;;;;;8.95;74.59;96446.02;104680;1273;100903;-67
2023/03/10 07:23:26;;;;;;;15.50;9.30;;;;;;;9.13;74.46;96445.23;104879;1261;99288;-68
2023/03/10 07:25:56;;;;;;;15.70;7.50;;;;;;;9.32;74.43;96440.68;104756;1260;99260;-68
2023/03/10 07:28:25;;;;;;;9.40;4.20;;;;;;;9.53;73.77;96438.64;104569;1280;107660;-69
2023/03/10 07:30:52;;;;;;;9.20;4.10;;;;;;;9.72;72.72;96439.15;104844;1262;99599;-68
2023/03/10 07:33:19;;;;;;;11.50;4.80;;;;;;;9.94;72.91;96433.84;104920;1262;99533;-71
2023/03/10 07:35:46;;;;;;;7.60;4.40;;;;;;;10.17;70.95;96434.69;104687;1261;99314;-69
2023/03/10 07:38:14;;;;;;;8.80;3.70;;;;;;;10.35;71.20;96433.80;105000;1263;99294;-72
2023/03/10 07:40:41;;;;;;;17.30;8.00;;;;;;;10.52;69.58;96433.91;104921;1270;99311;-68
2023/03/10 07:43:08;;;;;;;11.30;4.10;;;;;;;10.69;70.36;96434.64;104952;1261;99624;-68
2023/03/10 07:45:37;;;;;;;8.80;4.40;;;;;;;10.84;69.23;96436.02;104846;1271;99375;-69
2023/03/10 07:48:04;;;;;;;5.10;2.70;;;;;;;10.96;67.60;96435.07;104904;1264;99297;-68
2023/03/10 07:50:31;;;;;;;7.60;3.40;;;;;;;11.03;67.20;96428.27;104788;1261;99376;-69
2023/03/10 07:53:00;;;;;;;8.60;4.40;;;;;;;11.11;67.44;96423.98;104953;1263;108565;-68
2023/03/10 07:55:27;;;;;;;10.50;4.40;;;;;;;11.19;68.32;96421.17;105007;1273;99270;-68
2023/03/10 07:57:59;;;;;;;10.80;5.60;;;;;;;11.29;67.22;96415.13;105034;1263;99237;-68
2023/03/10 08:00:27;;;;;;;19.90;9.30;;;;;;;11.40;66.66;96416.80;104863;1263;113114;-69
2023/03/10 08:02:55;;;;;;;15.70;6.10;;;;;;;11.55;67.90;96413.44;104429;1267;100822;-69
2023/03/10 08:05:22;;;;;;;11.90;5.80;;;;;;;11.80;67.43;96408.83;104586;1274;107682;-68
2023/03/10 08:07:50;;;;;;;12.20;5.70;;;;;;;11.98;66.40;96412.05;104608;1270;100524;-68
2023/03/10 08:10:20;;;;;;;13.30;4.40;;;;;;;12.12;67.21;96410.77;104940;1270;99712;-69
2023/03/10 08:12:48;;;;;;;8.30;3.80;;;;;;;12.26;66.85;96410.59;104871;1271;113268;-70
2023/03/10 08:15:16;;;;;;;22.30;7.10;;;;;;;12.42;67.05;96415.31;104701;1263;99862;-70
2023/03/10 08:17:44;;;;;;;10.30;4.30;;;;;;;12.61;65.50;96417.89;104924;1272;108641;-72
2023/03/10 08:20:11;;;;;;;9.50;4.70;;;;;;;12.76;64.21;96417.73;104753;1271;99268;-69
2023/03/10 08:22:38;;;;;;;17.10;7.70;;;;;;;12.91;66.11;96416.42;104754;1262;99649;-71
2023/03/10 08:25:06;;;;;;;15.10;5.60;;;;;;;13.11;66.01;96415.95;104770;1263;99455;-69
2023/03/10 08:27:33;;;;;;;16.40;6.50;;;;;;;13.29;64.91;96413.83;104848;1272;99249;-68
2023/03/10 08:30:00;;;;;;;20.90;8.30;;;;;;;13.45;64.99;96413.48;104861;1271;99469;-68
2023/03/10 08:32:27;;;;;;;15.10;6.90;;;;;;;13.60;64.63;96409.23;104873;1270;99284;-69
2023/03/10 08:34:57;;;;;;;17.80;7.20;;;;;;;13.73;64.16;96412.48;104801;1262;99265;-69
2023/03/10 08:37:25;;;;;;;8.10;4.40;;;;;;;13.84;63.80;96407.23;104873;1258;99259;-69
2023/03/10 08:39:55;;;;;;;10.10;5.40;;;;;;;13.93;62.98;96405.42;104845;1268;99246;-69
2023/03/10 08:42:23;;;;;;;5.50;3.00;;;;;;;14.07;62.28;96409.38;104930;1261;108646;-69
2023/03/10 08:44:50;;;;;;;7.20;3.10;;;;;;;14.12;61.36;96410.88;104867;1273;99255;-69
2023/03/10 08:47:17;;;;;;;23.70;7.70;;;;;;;14.16;62.65;96411.27;104709;1273;99342;-68
2023/03/10 08:49:45;;;;;;;22.50;7.80;;;;;;;14.23;63.17;96416.06;104744;1262;99387;-68
2023/03/10 08:52:15;;;;;;;7.20;2.40;;;;;;;14.28;62.20;96412.14;104565;1267;99333;-71
2023/03/10 08:54:42;;;;;;;7.50;2.80;;;;;;;14.30;60.87;96412.20;104406;1273;107607;-70
2023/03/10 08:57:09;;;;;;;12.20;5.50;;;;;;;14.38;61.49;96411.90;104845;1264;99246;-69
2023/03/10 08:59:36;;;;;;;10.60;4.10;;;;;;;14.47;62.71;96412.74;104790;1261;99218;-75
2023/03/10 09:02:04;;;;;;;8.60;4.20;;;;;;;14.56;62.15;96412.52;104948;1271;99274;-69
2023/03/10 09:04:31;;;;;;;9.20;4.70;;;;;;;14.59;61.35;96411.95;104968;1271;100566;-69
2023/03/10 09:06:58;;;;;;;9.80;4.50;;;;;;;14.69;62.80;96411.36;104841;1271;99490;-71
2023/03/10 09:09:26;;;;;;;16.50;7.70;;;;;;;14.81;62.36;96403.19;104747;1262;99193;-69
2023/03/10 09:11:53;;;;;;;9.90;4.70;;;;;;;14.88;62.07;96401.29;104867;1264;99267;-70
2023/03/10 09:14:20;;;;;;;9.30;4.80;;;;;;;14.91;62.19;96401.59;104604;1264;99342;-69
2023/03/10 09:16:47;;;;;;;9.80;4.90;;;;;;;15.02;62.03;96403.44;105921;1268;99793;-71
2023/03/10 09:19:14;;;;;;;11.20;5.40;;;;;;;15.15;62.24;96397.64;104951;1263;99244;-72
2023/03/10 09:21:41;;;;;;;10.00;5.10;;;;;;;15.33;61.86;96394.26;104911;1262;99333;-73
2023/03/10 09:24:08;;;;;;;8.10;4.40;;;;;;;15.45;61.43;96387.02;104942;1273;100568;-69
2023/03/10 09:26:35;;;;;;;10.60;5.10;;;;;;;15.58;61.78;96386.80;104926;1266;99224;-69
2023/03/10 09:29:03;;;;;;;10.30;4.90;;;;;;;15.73;61.29;96384.58;104823;1264;99269;-69
2023/03/10 09:31:33;;;;;;;11.50;4.60;;;;;;;15.93;61.37;96376.80;104890;1263;99320;-69
2023/03/10 09:34:02;;;;;;;9.20;3.80;;;;;;;16.30;60.64;96375.10;104941;1263;99355;-72
2023/03/10 09:36:29;;;;;;;14.70;6.70;;;;;;;16.77;59.11;96374.39;104616;1274;111261;-70
2023/03/10 09:38:58;;;;;;;10.20;4.60;;;;;;;17.36;58.18;96370.96;104879;1263;100559;-69
2023/03/10 09:41:33;;;;;;;16.00;6.60;;;;;;;17.92;56.63;96372.64;104885;1261;109093;-69
2023/03/10 09:44:21;;;;;;;12.70;4.60;;;;;;;18.55;56.14;96371.63;104887;1264;99446;-68
2023/03/10 09:47:22;;;;;;;4.70;2.50;;;;;;;19.00;53.08;96375.55;104639;1267;99828;-69
2023/03/10 09:50:02;;;;;;;3.60;1.60;;;;;;;19.06;49.01;96366.23;104846;1263;113529;-70
2023/03/10 09:53:09;;;;;;;6.60;2.50;;;;;;;18.98;47.41;96368.05;104697;1266;99333;-71
2023/03/10 09:55:40;;;;;;;4.40;1.70;;;;;;;18.97;46.43;96364.19;104673;1263;108992;-71
2023/03/10 09:58:58;;;;;;;8.50;3.40;;;;;;;18.99;46.06;96360.19;104624;1270;99343;-70
2023/03/10 10:01:30;;;;;;;6.60;2.10;;;;;;;19.03;45.77;96364.02;104184;1279;99913;-70
2023/03/10 10:04:26;;;;;;;6.70;2.90;;;;;;;19.15;45.14;96358.48;104119;1272;113065;-69
2023/03/10 10:06:56;;;;;;;4.50;2.00;;;;;;;19.31;44.54;96355.29;103944;1273;99268;-70
2023/03/10 10:09:33;;;;;;;4.80;1.80;;;;;;;19.44;43.95;96353.18;104147;1283;108719;-70
2023/03/10 10:12:30;;;;;;;7.30;3.60;;;;;;;19.53;43.77;96352.66;104013;1270;100642;-69
2023/03/10 10:15:12;;;;;;;8.80;3.60;;;;;;;19.93;45.61;96349.71;103902;1285;99894;-69
2023/03/10 10:17:46;;;;;;;5.20;2.60;;;;;;;20.48;45.33;96348.92;104744;1274;113554;-69
2023/03/10 10:20:31;;;;;;;9.00;4.60;;;;;;;20.88;43.26;96352.04;103544;1278;100077;-74
2023/03/10 10:22:58;;;;;;;7.10;3.90;;;;;;;21.02;42.03;96344.58;103960;1284;108761;-70
2023/03/10 10:25:30;;;;;;;2.80;1.50;;;;;;;21.08;41.35;96348.21;103956;1287;99472;-70
2023/03/10 10:28:00;;;;;;;5.00;3.20;;;;;;;20.94;41.52;96344.98;103977;1284;99416;-70
2023/03/10 10:30:29;;;;;;;3.60;2.30;;;;;;;20.71;40.40;96346.44;103982;1276;113138;-70
2023/03/10 10:32:59;;;;;;;2.90;1.80;;;;;;;20.57;41.99;96340.83;103647;1279;100692;-68
2023/03/10 10:35:30;;;;;;;4.60;2.40;;;;;;;20.60;41.11;96337.81;103841;1293;106873;-68
2023/03/10 10:38:08;;;;;;;8.60;3.60;;;;;;;20.36;42.28;96333.91;104045;1279;99397;-68
2023/03/10 10:40:47;;;;;;;6.10;2.70;;;;;;;20.41;43.67;96329.89;104211;1270;99674;-68
2023/03/10 10:43:17;;;;;;;5.90;3.20;;;;;;;20.42;43.01;96330.73;104244;1279;113636;-68
2023/03/10 10:45:52;;;;;;;9.50;4.10;;;;;;;20.59;43.04;96324.71;104221;1270;100551;-68
2023/03/10 10:48:36;;;;;;;7.10;3.60;;;;;;;20.88;41.49;96323.71;104186;1279;109807;-68
2023/03/10 10:51:17;;;;;;;3.50;1.70;;;;;;;21.07;41.23;96316.52;104127;1273;99389;-68
2023/03/10 10:53:45;;;;;;;6.40;3.30;;;;;;;21.16;40.27;96308.93;104806;1264;100527;-67
2023/03/10 10:56:17;;;;;;;7.70;3.70;;;;;;;21.32;40.95;96318.00;104583;1273;113605;-67
2023/03/10 10:59:04;;;;;;;7.10;2.90;;;;;;;21.66;40.75;96312.46;104641;1273;99466;-67
2023/03/10 11:01:53;;;;;;;4.50;2.30;;;;;;;21.88;40.17;96308.69;104850;1278;108553;-68
2023/03/10 11:04:23;;;;;;;12.10;5.20;;;;;;;21.83;38.85;96310.77;104707;1264;99256;-68
2023/03/10 11:07:19;;;;;;;9.40;4.60;;;;;;;21.94;39.69;96313.77;104596;1264;99698;-70
2023/03/10 11:09:50;;;;;;;9.10;4.20;;;;;;;22.14;39.40;96307.67;104683;1264;112490;-66
2023/03/10 11:12:45;;;;;;;6.70;3.80;;;;;;;22.23;38.66;96309.14;105125;1263;99372;-68
2023/03/10 11:15:30;;;;;;;8.00;4.20;;;;;;;22.23;38.61;96300.36;104808;1273;108221;-67
2023/03/10 11:18:29;;;;;;;10.00;4.20;;;;;;;22.40;38.96;96301.69;104836;1264;99314;-68
2023/03/10 11:21:17;;;;;;;9.50;4.70;;;;;;;22.37;37.84;96299.66;104959;1267;99215;-69
2023/03/10 11:23:48;;;;;;;9.80;4.50;;;;;;;22.03;38.22;96300.64;104546;1276;113151;-70
2023/03/10 11:26:30;;;;;;;9.00;4.80;;;;;;;21.99;38.12;96297.67;104520;1276;99423;-69
2023/03/10 11:29:41;;;;;;;11.60;5.90;;;;;;;21.91;38.57;96299.80;104823;1261;108576;-69
2023/03/10 11:32:20;;;;;;;;;;;;;;;22.02;38.49;96295.11;104118;1280;99496;-67
2023/03/10 11:34:50;;;;;;;10.30;4.90;;;;;;;22.00;38.54;96292.13;104149;1272;99388;-68
2023/03/10 11:37:34;;;;;;;6.40;4.00;;;;;;;22.17;38.67;96291.16;104144;1267;114858;-69
2023/03/10 11:40:23;;;;;;;8.90;4.70;;;;;;;22.22;38.88;96298.67;104108;1278;100805;-66